Time;durP1;ratioP1;P1;durP2;ratioP2;P2;SDS_P1;SDS_P2;PMS_P1;PMS_P2;Temp;Humidity;BMP_temperature;BMP_pressure;BME280_temperature;BME280_humidity;BME280_pressure;Samples;Min_cycle;Max_cycle;Signal;HPM_P1;HPM_P2
2023/12/12 00:01:31;;;;;;;6.70;2.00;;;;;;;6.34;100.00;99953.97;5003719;28;20209;-79
2023/12/12 00:03:58;;;;;;;3.37;1.50;;;;;;;6.31;100.00;99952.34;5008268;28;20873;-80
2023/12/12 00:06:26;;;;;;;6.07;2.00;;;;;;;6.29;100.00;99954.22;5013674;28;20729;-81
2023/12/12 00:08:52;;;;;;;5.33;1.70;;;;;;;6.24;100.00;99951.84;5005077;28;20214;-80
2023/12/12 00:11:19;;;;;;;5.90;1.83;;;;;;;6.21;100.00;99952.03;5011485;28;20209;-80
2023/12/12 00:13:45;;;;;;;2.50;2.30;;;;;;;6.20;100.00;99945.03;5011236;28;20207;-81
2023/12/12 00:16:11;;;;;;;4.27;1.90;;;;;;;6.18;99.82;99954.81;5005465;28;20250;-79
2023/12/12 00:18:38;;;;;;;4.70;1.47;;;;;;;6.16;100.00;99959.34;5006321;28;20213;-80
2023/12/12 00:21:06;;;;;;;7.13;1.80;;;;;;;6.13;100.00;99964.81;5014349;28;20207;-80
2023/12/12 00:23:33;;;;;;;7.73;2.73;;;;;;;6.13;100.00;99964.81;5016057;28;20686;-79
2023/12/12 00:26:00;;;;;;;7.10;2.30;;;;;;;6.10;100.00;99970.25;5003892;28;20261;-80
2023/12/12 00:28:26;;;;;;;10.40;3.00;;;;;;;6.09;100.00;99965.91;4998624;28;20204;-79
2023/12/12 00:30:53;;;;;;;4.53;2.07;;;;;;;6.07;100.00;99962.53;5008877;28;20257;-80
2023/12/12 00:33:19;;;;;;;9.93;2.90;;;;;;;6.06;100.00;99963.47;5003554;28;20214;-80
2023/12/12 00:35:46;;;;;;;7.27;3.63;;;;;;;6.05;100.00;99963.53;5005324;28;20231;-82
2023/12/12 00:38:12;;;;;;;8.00;2.50;;;;;;;6.02;100.00;99966.34;5011707;28;20231;-81
2023/12/12 00:40:40;;;;;;;8.27;2.17;;;;;;;6.01;100.00;99970.78;5014649;28;20213;-79
2023/12/12 00:43:07;;;;;;;6.53;2.30;;;;;;;6.00;100.00;99974.34;5006217;28;20225;-82
2023/12/12 00:45:34;;;;;;;9.13;2.37;;;;;;;6.01;100.00;99970.78;5012774;28;20246;-81
2023/12/12 00:48:00;;;;;;;6.90;2.30;;;;;;;6.01;100.00;99980.50;5015392;28;20214;-82
2023/12/12 00:50:27;;;;;;;5.60;1.73;;;;;;;5.99;100.00;99988.50;5011226;28;20218;-80
2023/12/12 00:52:54;;;;;;;7.27;2.60;;;;;;;5.94;100.00;99979.97;5006302;28;20302;-79
2023/12/12 00:55:20;;;;;;;7.13;1.97;;;;;;;5.96;100.00;99985.19;5004602;28;20698;-80
2023/12/12 00:57:48;;;;;;;3.53;1.80;;;;;;;5.91;100.00;99981.00;5003379;28;20215;-82
2023/12/12 01:00:17;;;;;;;4.03;1.67;;;;;;;5.92;100.00;99990.63;5017121;28;20596;-80
2023/12/12 01:02:43;;;;;;;6.47;2.10;;;;;;;5.92;100.00;99993.25;5008753;28;20242;-80
2023/12/12 01:05:10;;;;;;;4.87;1.60;;;;;;;5.95;100.00;99992.25;5013984;28;20217;-80
2023/12/12 01:07:36;;;;;;;7.57;2.10;;;;;;;5.96;100.00;99993.09;5011542;28;20627;-80
2023/12/12 01:10:04;;;;;;;6.00;1.77;;;;;;;5.92;100.00;99995.06;5015118;28;20603;-80
2023/12/12 01:12:30;;;;;;;5.93;1.80;;;;;;;5.92;100.00;99995.91;5003451;28;20199;-80
2023/12/12 01:14:59;;;;;;;4.40;1.80;;;;;;;5.92;100.00;99993.25;4996040;28;20207;-80
2023/12/12 01:17:25;;;;;;;4.63;1.80;;;;;;;5.93;100.00;99994.13;5005837;28;20238;-79
2023/12/12 01:19:52;;;;;;;8.87;2.00;;;;;;;5.92;100.00;99992.41;5014660;28;20221;-80
2023/12/12 01:22:18;;;;;;;5.70;2.00;;;;;;;5.91;100.00;99996.03;5017934;28;21531;-80
2023/12/12 01:24:45;;;;;;;6.77;2.73;;;;;;;5.92;100.00;99995.06;5010226;28;20719;-80
2023/12/12 01:27:11;;;;;;;7.83;2.83;;;;;;;5.92;100.00;100003.84;5011401;28;20242;-80
2023/12/12 01:29:39;;;;;;;6.20;1.93;;;;;;;5.95;100.00;100001.97;5002687;28;20211;-81
2023/12/12 01:32:07;;;;;;;6.50;2.50;;;;;;;5.96;100.00;100006.31;5004348;28;20579;-80
2023/12/12 01:34:36;;;;;;;6.40;2.47;;;;;;;5.94;100.00;100009.03;5002682;28;20218;-79
2023/12/12 01:37:02;;;;;;;6.53;2.63;;;;;;;5.93;100.00;100002.91;5013981;28;20630;-79
2023/12/12 01:39:29;;;;;;;5.80;2.40;;;;;;;5.97;100.00;100000.94;5008374;28;20222;-80
2023/12/12 01:41:55;;;;;;;7.50;2.60;;;;;;;5.94;100.00;99995.84;5010135;28;20234;-81
2023/12/12 01:44:22;;;;;;;7.03;2.40;;;;;;;5.94;100.00;100009.03;5009207;28;20204;-80
2023/12/12 01:46:51;;;;;;;7.47;3.23;;;;;;;5.93;100.00;100004.69;4999958;28;20232;-79
2023/12/12 01:49:19;;;;;;;7.90;2.93;;;;;;;5.93;100.00;100004.69;5011804;28;20204;-80
2023/12/12 01:51:46;;;;;;;7.30;2.53;;;;;;;5.93;100.00;100007.34;5008152;28;20203;-80
2023/12/12 01:54:14;;;;;;;7.13;3.07;;;;;;;5.93;100.00;99999.41;5001320;28;20215;-81
2023/12/12 01:56:40;;;;;;;5.13;2.93;;;;;;;5.92;100.00;99993.25;5005945;28;20719;-80
2023/12/12 01:59:06;;;;;;;9.17;2.97;;;;;;;5.92;100.00;99995.91;5013653;28;20207;-82
2023/12/12 02:01:33;;;;;;;8.20;2.97;;;;;;;5.91;100.00;99991.56;5012119;28;20199;-80
2023/12/12 02:04:01;;;;;;;7.70;3.03;;;;;;;5.92;100.00;99989.78;5010048;28;20202;-79
2023/12/12 02:06:29;;;;;;;9.23;3.17;;;;;;;5.90;100.00;99987.25;5012928;28;20251;-80
2023/12/12 02:08:56;;;;;;;9.70;3.77;;;;;;;5.90;100.00;99984.59;5009042;28;20666;-80
2023/12/12 02:11:23;;;;;;;6.93;3.20;;;;;;;5.89;100.00;99989.97;5008599;28;20242;-80
2023/12/12 02:13:49;;;;;;;8.17;3.43;;;;;;;5.89;100.00;99992.59;5008532;28;20206;-80
2023/12/12 02:16:17;;;;;;;7.90;3.23;;;;;;;5.88;100.00;99989.13;5006768;28;20715;-81
2023/12/12 02:18:43;;;;;;;11.20;3.50;;;;;;;5.88;100.00;99983.81;5013057;28;20207;-81
2023/12/12 02:21:10;;;;;;;9.00;4.23;;;;;;;5.88;100.00;99994.41;5010978;28;20879;-81
2023/12/12 02:23:37;;;;;;;7.00;3.33;;;;;;;5.87;100.00;99997.09;5012980;28;20207;-81
2023/12/12 02:26:04;;;;;;;6.33;3.10;;;;;;;5.85;100.00;99981.31;5010849;28;20237;-81
2023/12/12 02:28:31;;;;;;;5.20;3.20;;;;;;;5.85;100.00;99989.25;5004830;28;20217;-81
2023/12/12 02:31:00;;;;;;;6.37;3.53;;;;;;;5.84;100.00;99984.88;5016882;28;20217;-82
2023/12/12 02:33:26;;;;;;;5.77;2.67;;;;;;;5.83;100.00;99991.09;5009350;28;20262;-79
2023/12/12 02:35:52;;;;;;;6.53;3.27;;;;;;;5.81;100.00;99986.84;5009775;28;20230;-81
2023/12/12 02:38:19;;;;;;;8.23;3.50;;;;;;;5.81;100.00;99987.69;5010003;28;20210;-81
2023/12/12 02:40:47;;;;;;;6.70;3.17;;;;;;;5.82;100.00;99986.75;5014107;28;20212;-81
2023/12/12 02:43:13;;;;;;;7.47;2.70;;;;;;;5.82;100.00;99986.75;5011832;28;20687;-80
2023/12/12 02:45:40;;;;;;;5.60;3.17;;;;;;;5.81;100.00;99990.34;5015735;28;20577;-81
2023/12/12 02:48:06;;;;;;;6.10;2.90;;;;;;;5.79;100.00;99986.91;4997580;28;20209;-81
2023/12/12 02:50:33;;;;;;;4.87;2.70;;;;;;;5.79;100.00;99980.78;5007304;28;20207;-81
2023/12/12 02:52:59;;;;;;;6.90;3.00;;;;;;;5.80;100.00;99987.78;5007457;28;20218;-81
2023/12/12 02:55:26;;;;;;;5.97;2.80;;;;;;;5.78;100.00;99979.94;5013035;28;20213;-81
2023/12/12 02:57:53;;;;;;;7.57;2.77;;;;;;;5.79;100.00;99976.34;5019374;28;20230;-81
2023/12/12 03:00:20;;;;;;;8.47;3.23;;;;;;;5.78;100.00;99979.06;5007199;28;20771;-80
2023/12/12 03:02:47;;;;;;;6.43;2.97;;;;;;;5.77;100.00;99972.94;5005907;28;20212;-79
2023/12/12 03:05:13;;;;;;;6.30;3.17;;;;;;;5.75;100.00;99972.16;5014306;28;20574;-82
2023/12/12 03:07:43;;;;;;;5.73;3.17;;;;;;;5.75;100.00;99969.53;5010868;28;20230;-80
2023/12/12 03:10:09;;;;;;;10.43;3.57;;;;;;;5.73;100.00;99966.09;5009247;28;20269;-81
2023/12/12 03:12:36;;;;;;;8.37;3.80;;;;;;;5.71;100.00;99964.50;5009694;28;20203;-81
2023/12/12 03:15:05;;;;;;;7.10;3.37;;;;;;;5.70;100.00;99968.09;5016933;28;20214;-79
2023/12/12 03:17:31;;;;;;;7.93;3.63;;;;;;;5.68;100.00;99954.94;5016258;28;20226;-80
2023/12/12 03:19:58;;;;;;;6.73;3.50;;;;;;;5.68;100.00;99954.94;5011795;28;20206;-80
2023/12/12 03:22:24;;;;;;;8.57;4.13;;;;;;;5.69;100.00;99950.53;5014475;28;20231;-81
2023/12/12 03:24:51;;;;;;;12.00;4.00;;;;;;;5.66;100.00;99948.91;5013111;28;20219;-81
2023/12/12 03:27:17;;;;;;;6.23;3.10;;;;;;;5.62;100.00;99946.50;5006839;28;20235;-81
2023/12/12 03:29:44;;;;;;;7.80;3.37;;;;;;;5.62;100.00;99951.78;5000034;28;20225;-81
2023/12/12 03:32:12;;;;;;;8.47;3.60;;;;;;;5.60;100.00;99954.50;5009430;28;20199;-80
2023/12/12 03:34:39;;;;;;;7.13;3.73;;;;;;;5.59;100.00;99958.06;5009982;28;20211;-81
2023/12/12 03:37:05;;;;;;;9.47;3.73;;;;;;;5.59;100.00;99952.78;5003727;28;20229;-80
2023/12/12 03:39:32;;;;;;;9.50;4.20;;;;;;;5.57;100.00;99957.31;5011831;28;20421;-81
2023/12/12 03:41:58;;;;;;;5.30;2.70;;;;;;;5.55;100.00;99949.47;5007780;28;20203;-80
2023/12/12 03:44:25;;;;;;;7.80;3.50;;;;;;;5.55;100.00;99952.09;5008232;28;20211;-81
2023/12/12 03:46:51;;;;;;;7.87;3.23;;;;;;;5.54;100.00;99958.34;5011476;28;20223;-83
2023/12/12 03:49:20;;;;;;;10.73;3.60;;;;;;;5.54;100.00;99961.00;5010280;28;20213;-81
2023/12/12 03:51:46;;;;;;;7.80;2.80;;;;;;;5.53;100.00;99959.28;5005719;28;20211;-82
2023/12/12 03:54:12;;;;;;;6.13;3.10;;;;;;;5.53;100.00;99955.78;5015160;28;20768;-81
2023/12/12 03:56:39;;;;;;;10.37;3.63;;;;;;;5.52;100.00;99960.22;5018376;28;20234;-82
2023/12/12 03:59:05;;;;;;;7.67;3.17;;;;;;;5.53;100.00;99953.16;5012191;28;20199;-82
2023/12/12 04:01:32;;;;;;;6.40;3.17;;;;;;;5.53;100.00;99954.00;5016703;28;20211;-82
2023/12/12 04:03:59;;;;;;;9.07;3.10;;;;;;;5.55;100.00;99964.47;5009821;28;20203;-80
2023/12/12 04:06:27;;;;;;;9.93;3.23;;;;;;;5.55;100.00;99962.66;5013432;28;20223;-82
2023/12/12 04:08:53;;;;;;;5.03;2.77;;;;;;;5.53;100.00;99964.56;5011337;28;20207;-81
2023/12/12 04:11:20;;;;;;;6.57;2.70;;;;;;;5.56;100.00;99968.81;5015689;28;20215;-82
2023/12/12 04:13:47;;;;;;;8.87;3.43;;;;;;;5.54;100.00;99970.69;5013659;28;20218;-81
2023/12/12 04:16:13;;;;;;;6.20;3.00;;;;;;;5.50;100.00;99958.59;5021986;28;20222;-80
2023/12/12 04:18:40;;;;;;;5.57;2.87;;;;;;;5.50;100.00;99961.22;5016614;28;20203;-81
2023/12/12 04:21:06;;;;;;;8.37;3.63;;;;;;;5.48;100.00;99966.59;5009496;28;20219;-81
2023/12/12 04:23:35;;;;;;;7.50;3.70;;;;;;;5.48;100.00;99968.38;5004853;28;20203;-82
2023/12/12 04:26:01;;;;;;;7.50;4.10;;;;;;;5.46;100.00;99968.47;5009426;28;20242;-82
2023/12/12 04:28:28;;;;;;;9.67;3.77;;;;;;;5.47;100.00;99971.94;5005103;28;20688;-82
2023/12/12 04:30:54;;;;;;;8.33;3.80;;;;;;;5.46;100.00;99973.75;5003421;28;20224;-81
2023/12/12 04:33:21;;;;;;;9.60;4.57;;;;;;;5.47;100.00;99958.75;5005308;28;20234;-81
2023/12/12 04:35:47;;;;;;;6.90;4.00;;;;;;;5.49;100.00;99970.94;5010568;28;20582;-82
2023/12/12 04:38:14;;;;;;;8.07;3.87;;;;;;;5.49;100.00;99968.31;5007870;28;20227;-81
2023/12/12 04:40:42;;;;;;;9.40;4.43;;;;;;;5.53;100.00;99971.63;5009572;28;20269;-80
2023/12/12 04:43:09;;;;;;;10.80;3.70;;;;;;;5.52;100.00;99968.13;5009050;28;20289;-82
2023/12/12 04:45:35;;;;;;;7.87;3.67;;;;;;;5.53;100.00;99975.13;5009517;28;20203;-80
2023/12/12 04:48:03;;;;;;;7.30;3.33;;;;;;;5.53;100.00;99967.22;5012711;28;20199;-81
2023/12/12 04:50:29;;;;;;;9.77;3.87;;;;;;;5.51;100.00;99969.06;5012464;28;20298;-82
2023/12/12 04:52:56;;;;;;;8.17;3.30;;;;;;;5.49;100.00;99956.88;5009284;28;20215;-81
2023/12/12 04:55:22;;;;;;;10.03;4.07;;;;;;;5.46;100.00;99967.59;5006809;28;20222;-81
2023/12/12 04:57:50;;;;;;;7.20;4.67;;;;;;;5.44;100.00;99970.31;5011745;28;20813;-82
2023/12/12 05:00:17;;;;;;;14.00;3.50;;;;;;;5.42;100.00;99963.41;5006263;28;20651;-81
2023/12/12 05:02:45;;;;;;;7.00;3.03;;;;;;;5.42;100.00;99964.25;5014403;28;20199;-80
2023/12/12 05:05:12;;;;;;;9.47;3.57;;;;;;;5.39;100.00;99967.06;5002624;28;20230;-80
2023/12/12 05:07:38;;;;;;;6.10;3.60;;;;;;;5.36;100.00;99966.41;5008809;28;20227;-80
2023/12/12 05:10:06;;;;;;;7.57;3.10;;;;;;;5.33;100.00;99964.78;5009148;28;20241;-80
2023/12/12 05:12:33;;;;;;;9.73;3.40;;;;;;;5.31;100.00;99965.78;5014640;28;20239;-79
2023/12/12 05:15:00;;;;;;;5.93;3.33;;;;;;;5.28;100.00;99971.22;5006625;28;20207;-81
2023/12/12 05:17:27;;;;;;;6.60;3.40;;;;;;;5.26;100.00;99978.34;5006142;28;20237;-80
2023/12/12 05:19:53;;;;;;;7.90;3.60;;;;;;;5.22;100.00;99967.94;5009603;28;20206;-79
2023/12/12 05:22:20;;;;;;;5.57;3.70;;;;;;;5.20;100.00;99976.88;5000661;28;20215;-81
2023/12/12 05:24:46;;;;;;;7.30;4.93;;;;;;;5.19;100.00;99977.84;5006980;28;20215;-82
2023/12/12 05:27:13;;;;;;;9.67;5.53;;;;;;;5.15;100.00;99977.13;5012678;28;20235;-81
2023/12/12 05:29:39;;;;;;;8.73;5.10;;;;;;;5.14;100.00;99978.06;5006469;28;20212;-80
2023/12/12 05:32:07;;;;;;;11.83;5.03;;;;;;;5.13;100.00;99981.63;5007657;28;20223;-81
2023/12/12 05:34:35;;;;;;;11.03;6.33;;;;;;;5.12;100.00;99979.06;5004104;28;20553;-81
2023/12/12 05:37:01;;;;;;;11.33;6.10;;;;;;;5.12;100.00;99979.06;5004895;28;20285;-80
2023/12/12 05:39:28;;;;;;;12.37;5.67;;;;;;;5.09;100.00;99979.22;4996026;28;20218;-80
2023/12/12 05:41:54;;;;;;;9.07;4.60;;;;;;;5.08;100.00;99982.81;5009062;28;20236;-82
2023/12/12 05:44:21;;;;;;;6.87;3.93;;;;;;;5.08;100.00;99980.16;5005008;28;20210;-82
2023/12/12 05:46:47;;;;;;;7.43;4.30;;;;;;;5.08;100.00;99982.81;5012202;28;20222;-82
2023/12/12 05:49:15;;;;;;;6.33;4.00;;;;;;;5.09;100.00;99976.59;5001232;28;20210;-81
2023/12/12 05:51:42;;;;;;;8.60;3.83;;;;;;;5.09;100.00;99974.81;5006821;28;20218;-82
2023/12/12 05:54:11;;;;;;;8.10;3.60;;;;;;;5.11;100.00;99982.66;5003219;28;20218;-81
2023/12/12 05:56:38;;;;;;;6.20;3.50;;;;;;;5.12;100.00;99979.94;5007341;28;20254;-81
2023/12/12 05:59:05;;;;;;;5.87;3.93;;;;;;;5.14;100.00;99982.50;4999044;28;20225;-82
2023/12/12 06:01:31;;;;;;;6.87;3.80;;;;;;;5.16;100.00;99980.63;4998133;28;20230;-80
2023/12/12 06:03:58;;;;;;;11.37;3.50;;;;;;;5.20;100.00;99982.16;4999734;28;20214;-82
2023/12/12 06:06:25;;;;;;;10.17;4.00;;;;;;;5.22;100.00;99982.94;5002979;28;20242;-81
2023/12/12 06:08:52;;;;;;;8.57;3.90;;;;;;;5.23;100.00;99982.00;5006334;28;20220;-83
2023/12/12 06:11:21;;;;;;;7.77;4.03;;;;;;;5.23;100.00;99982.84;5032150;28;20214;-82
2023/12/12 06:13:49;;;;;;;5.60;3.67;;;;;;;5.24;100.00;99983.72;5032215;28;20202;-84
2023/12/12 06:16:17;;;;;;;8.10;3.17;;;;;;;5.24;100.00;99987.22;5031845;28;20241;-84
2023/12/12 06:18:43;;;;;;;5.20;3.30;;;;;;;5.25;100.00;99982.78;5031332;28;20237;-83
2023/12/12 06:21:10;;;;;;;5.00;3.13;;;;;;;5.28;100.00;99982.63;5028611;28;20214;-82
2023/12/12 06:23:37;;;;;;;8.80;3.00;;;;;;;5.30;100.00;99986.03;5017722;28;20202;-83
2023/12/12 06:26:04;;;;;;;9.87;3.30;;;;;;;5.31;100.00;99981.63;5013453;28;20246;-81
2023/12/12 06:28:31;;;;;;;5.50;3.40;;;;;;;5.35;100.00;99984.03;5014698;28;20199;-83
2023/12/12 06:30:57;;;;;;;5.47;3.20;;;;;;;5.36;100.00;99984.88;5016184;28;20214;-84
2023/12/12 06:33:27;;;;;;;9.17;3.40;;;;;;;5.38;100.00;99985.63;5010151;28;20215;-83
2023/12/12 06:35:54;;;;;;;6.33;3.40;;;;;;;5.40;100.00;99984.63;5006133;28;20224;-82
2023/12/12 06:38:20;;;;;;;8.70;3.20;;;;;;;5.42;100.00;99987.19;5009665;28;20247;-82
2023/12/12 06:40:48;;;;;;;6.53;3.20;;;;;;;5.42;100.00;99980.09;5011968;28;20202;-83
2023/12/12 06:43:16;;;;;;;7.37;3.20;;;;;;;5.43;100.00;99983.59;5008639;28;20202;-82
2023/12/12 06:45:42;;;;;;;5.43;3.07;;;;;;;5.44;100.00;99974.75;5014024;28;20206;-83
2023/12/12 06:48:09;;;;;;;6.70;3.93;;;;;;;5.44;100.00;99970.31;5010427;28;20199;-84
2023/12/12 06:50:36;;;;;;;6.83;3.77;;;;;;;5.44;100.00;99980.88;5008207;28;20207;-83
2023/12/12 06:53:02;;;;;;;7.87;3.33;;;;;;;5.46;100.00;99973.75;5010572;28;20429;-84
2023/12/12 06:55:29;;;;;;;5.17;2.97;;;;;;;5.45;100.00;99974.66;5013529;28;20203;-83
2023/12/12 06:57:57;;;;;;;4.97;3.17;;;;;;;5.46;100.00;99973.75;5008774;28;20227;-83
2023/12/12 07:00:24;;;;;;;7.03;3.77;;;;;;;5.49;100.00;99981.50;5009729;28;21563;-83
2023/12/12 07:02:51;;;;;;;6.63;3.83;;;;;;;5.50;100.00;99977.06;5009920;28;20284;-84
2023/12/12 07:05:17;;;;;;;7.17;4.60;;;;;;;5.52;100.00;99981.34;5007638;28;20230;-83
2023/12/12 07:07:44;;;;;;;8.60;4.80;;;;;;;5.55;100.00;99977.69;5012881;28;20246;-82
2023/12/12 07:10:11;;;;;;;7.53;4.33;;;;;;;5.58;100.00;99978.34;5009463;28;20293;-83
2023/12/12 07:12:37;;;;;;;7.90;4.87;;;;;;;5.62;100.00;99978.19;5010078;28;20207;-82
2023/12/12 07:15:07;;;;;;;8.27;4.73;;;;;;;5.65;100.00;99980.69;5007573;28;20187;-82
2023/12/12 07:17:33;;;;;;;8.33;5.37;;;;;;;5.68;100.00;99977.88;5004261;28;20231;-83
2023/12/12 07:20:00;;;;;;;8.43;4.47;;;;;;;5.70;100.00;99976.00;5007044;28;20214;-82
2023/12/12 07:22:26;;;;;;;7.73;4.43;;;;;;;5.70;100.00;99978.66;5009726;28;20203;-83
2023/12/12 07:24:52;;;;;;;8.23;4.57;;;;;;;5.70;100.00;99979.50;5007367;28;20203;-83
2023/12/12 07:27:19;;;;;;;7.13;4.07;;;;;;;5.72;100.00;99976.78;5004705;28;20247;-83
2023/12/12 07:29:45;;;;;;;6.07;4.63;;;;;;;5.71;100.00;99977.72;5008816;28;20211;-83
2023/12/12 07:32:13;;;;;;;5.23;3.93;;;;;;;5.71;100.00;99983.00;5010296;28;20211;-83
2023/12/12 07:34:40;;;;;;;6.10;4.33;;;;;;;5.73;100.00;99983.78;5012811;28;20230;-82
2023/12/12 07:37:06;;;;;;;7.73;4.10;;;;;;;5.74;100.00;99983.66;5010770;28;20605;-84
2023/12/12 07:39:33;;;;;;;9.03;5.03;;;;;;;5.74;100.00;99990.72;5004181;28;20572;-83
2023/12/12 07:41:59;;;;;;;7.57;5.50;;;;;;;5.75;100.00;99987.16;5008476;28;20214;-81
2023/12/12 07:44:26;;;;;;;11.57;5.63;;;;;;;5.76;100.00;99994.16;5008859;28;20219;-83
2023/12/12 07:46:52;;;;;;;7.80;5.37;;;;;;;5.77;100.00;99988.78;5012851;28;20224;-84
2023/12/12 07:49:20;;;;;;;8.43;4.67;;;;;;;5.80;100.00;99990.41;5005452;28;20214;-83
2023/12/12 07:51:47;;;;;;;6.80;4.70;;;;;;;5.82;100.00;99991.19;5005610;28;20211;-83
2023/12/12 07:54:13;;;;;;;9.00;5.13;;;;;;;5.84;100.00;99990.19;5004858;28;20207;-83
2023/12/12 07:56:41;;;;;;;9.17;5.97;;;;;;;5.85;100.00;99985.75;5009863;28;20849;-83
2023/12/12 07:59:08;;;;;;;12.53;6.80;;;;;;;5.86;100.00;99984.81;5002407;28;20222;-83
2023/12/12 08:01:36;;;;;;;14.03;7.73;;;;;;;5.87;100.00;99990.00;5009192;28;20199;-83
2023/12/12 08:04:04;;;;;;;12.63;5.93;;;;;;;5.89;100.00;99988.19;5008633;28;20211;-83
2023/12/12 08:06:32;;;;;;;7.93;5.67;;;;;;;5.90;100.00;99986.38;5008573;28;20223;-82
2023/12/12 08:08:59;;;;;;;8.20;5.67;;;;;;;5.94;100.00;99990.53;5011607;28;20626;-81
2023/12/12 08:11:27;;;;;;;8.00;5.73;;;;;;;5.97;100.00;99986.88;5005733;28;20583;-82
2023/12/12 08:13:54;;;;;;;14.20;6.80;;;;;;;5.98;100.00;99992.09;5005016;28;20284;-83
2023/12/12 08:16:20;;;;;;;7.23;4.20;;;;;;;5.99;100.00;99988.50;5004274;28;20226;-83
2023/12/12 08:18:47;;;;;;;6.87;5.43;;;;;;;6.05;100.00;99987.34;5012182;28;20223;-83
2023/12/12 08:21:13;;;;;;;7.10;4.73;;;;;;;6.07;100.00;99996.03;5003068;28;20208;-82
2023/12/12 08:23:42;;;;;;;7.07;4.60;;;;;;;6.09;100.00;99994.97;5008557;28;20207;-83
2023/12/12 08:26:10;;;;;;;7.03;4.73;;;;;;;6.09;100.00;99984.41;5004960;28;20758;-84
2023/12/12 08:28:38;;;;;;;6.37;4.23;;;;;;;6.14;100.00;100000.88;5007287;28;20206;-84
2023/12/12 08:31:05;;;;;;;6.37;5.07;;;;;;;6.13;100.00;100001.81;5006489;28;20702;-82
2023/12/12 08:33:33;;;;;;;7.77;5.60;;;;;;;6.16;100.00;99990.22;5006547;28;20269;-82
2023/12/12 08:36:00;;;;;;;7.40;5.60;;;;;;;6.20;100.00;99991.75;5007627;28;20857;-82
2023/12/12 08:38:26;;;;;;;6.97;5.87;;;;;;;6.24;100.00;99990.66;5005965;28;20230;-82
2023/12/12 08:40:54;;;;;;;7.40;5.67;;;;;;;6.24;100.00;99991.50;5002853;28;20222;-83
2023/12/12 08:43:20;;;;;;;8.20;6.57;;;;;;;6.27;100.00;99993.97;5004413;28;20206;-82
2023/12/12 08:45:47;;;;;;;9.60;7.17;;;;;;;6.33;100.00;99995.41;5010472;28;20207;-83
2023/12/12 08:48:14;;;;;;;9.83;6.50;;;;;;;6.34;100.00;99994.47;5009010;28;20293;-82
2023/12/12 08:50:40;;;;;;;9.50;7.30;;;;;;;6.39;100.00;99994.22;5007948;28;20206;-83
2023/12/12 08:53:07;;;;;;;12.13;7.87;;;;;;;6.41;100.00;100000.28;5004198;28;20204;-81
2023/12/12 08:55:34;;;;;;;11.87;7.53;;;;;;;6.40;100.00;99983.56;5006269;28;20205;-82
2023/12/12 08:58:04;;;;;;;10.43;7.33;;;;;;;6.42;100.00;99986.97;5004296;28;20226;-83
2023/12/12 09:00:31;;;;;;;12.63;7.87;;;;;;;6.44;100.00;99977.16;5005417;28;20199;-83
2023/12/12 09:02:57;;;;;;;14.40;8.30;;;;;;;6.52;100.00;99984.66;5008481;28;20202;-82
2023/12/12 09:05:24;;;;;;;13.90;8.80;;;;;;;6.54;100.00;99983.63;5004730;28;20212;-83
2023/12/12 09:07:51;;;;;;;13.27;8.80;;;;;;;6.56;100.00;99987.03;5005145;28;20234;-82
2023/12/12 09:10:17;;;;;;;14.23;8.47;;;;;;;6.59;100.00;99989.50;5003217;28;20274;-83
2023/12/12 09:12:44;;;;;;;13.97;8.30;;;;;;;6.63;100.00;99984.88;5002005;28;20215;-82
2023/12/12 09:15:12;;;;;;;14.93;9.00;;;;;;;6.65;100.00;99985.63;5009295;28;20231;-82
2023/12/12 09:17:38;;;;;;;13.17;9.10;;;;;;;6.65;100.00;99985.63;5007378;28;20309;-82
2023/12/12 09:20:06;;;;;;;14.23;9.27;;;;;;;6.65;100.00;99988.28;5005413;28;20234;-82
2023/12/12 09:22:32;;;;;;;12.97;8.07;;;;;;;6.67;100.00;99974.97;5007811;28;20214;-82
2023/12/12 09:24:59;;;;;;;14.47;9.20;;;;;;;6.70;100.00;99986.22;5005846;28;20225;-82
2023/12/12 09:27:25;;;;;;;14.50;9.00;;;;;;;6.73;100.00;99979.91;5007531;28;20218;-82
2023/12/12 09:29:52;;;;;;;13.77;8.97;;;;;;;6.74;100.00;99977.19;5004751;28;20211;-83
2023/12/12 09:32:20;;;;;;;16.83;9.53;;;;;;;6.76;100.00;99970.00;5005314;28;20259;-83
2023/12/12 09:34:46;;;;;;;14.97;8.60;;;;;;;6.81;100.00;99988.25;5003109;28;20203;-82
2023/12/12 09:37:12;;;;;;;17.00;9.30;;;;;;;6.81;100.00;99978.50;5000620;28;20226;-82
2023/12/12 09:39:39;;;;;;;16.33;8.97;;;;;;;6.84;100.00;99973.03;5003663;28;20230;-83
2023/12/12 09:42:11;;;;;;;14.63;8.63;;;;;;;6.87;100.00;99967.56;5003333;28;20207;-82
2023/12/12 09:44:42;;;;;;;14.50;8.40;;;;;;;6.91;100.00;99969.09;5004419;28;20199;-82
2023/12/12 09:47:09;;;;;;;12.97;8.23;;;;;;;6.94;100.00;99963.63;5005348;28;20238;-82
2023/12/12 09:49:37;;;;;;;11.33;7.83;;;;;;;7.01;100.00;99963.25;5003627;28;20206;-82
2023/12/12 09:52:04;;;;;;;12.70;8.00;;;;;;;7.03;100.00;99956.06;5006232;28;20221;-83
2023/12/12 09:54:31;;;;;;;13.27;7.73;;;;;;;7.06;100.00;99953.25;5003316;28;20206;-83
2023/12/12 09:56:58;;;;;;;14.13;7.37;;;;;;;7.08;100.00;99959.31;5003706;28;20248;-83
2023/12/12 09:59:24;;;;;;;11.40;7.03;;;;;;;7.11;100.00;99952.03;5007195;28;20308;-82
2023/12/12 10:01:55;;;;;;;11.33;7.37;;;;;;;7.12;100.00;99950.25;5008304;28;20567;-83
2023/12/12 10:04:23;;;;;;;11.47;6.70;;;;;;;7.15;100.00;99942.13;5004069;28;20218;-83
2023/12/12 10:06:52;;;;;;;15.17;6.90;;;;;;;7.18;100.00;99947.19;5006791;28;20234;-83
2023/12/12 10:09:20;;;;;;;11.43;7.03;;;;;;;7.24;100.00;99936.25;5005911;28;20585;-82
2023/12/12 10:11:48;;;;;;;11.37;6.40;;;;;;;7.28;100.00;99935.97;5011488;28;20567;-83
2023/12/12 10:14:15;;;;;;;9.03;6.43;;;;;;;7.28;100.00;99928.03;5009724;28;20320;-82
2023/12/12 10:16:42;;;;;;;12.93;6.30;;;;;;;7.29;100.00;99934.19;5001931;28;20251;-83
2023/12/12 10:19:13;;;;;;;11.03;6.37;;;;;;;7.31;100.00;99932.28;5009552;28;20715;-83
2023/12/12 10:21:39;;;;;;;12.90;4.77;;;;;;;7.37;100.00;99929.25;5006144;28;20230;-83
2023/12/12 10:24:07;;;;;;;8.30;5.50;;;;;;;7.39;100.00;99922.06;5009884;28;20203;-83
2023/12/12 10:26:34;;;;;;;13.87;4.50;;;;;;;7.39;100.00;99922.06;5004984;28;20587;-82
2023/12/12 10:29:01;;;;;;;9.37;4.93;;;;;;;7.40;100.00;99910.53;5005505;28;20203;-83
2023/12/12 10:31:28;;;;;;;8.03;4.37;;;;;;;7.45;100.00;99916.41;5006944;28;20660;-82
2023/12/12 10:33:58;;;;;;;7.60;4.20;;;;;;;7.49;100.00;99909.13;5010368;28;20297;-83
2023/12/12 10:36:24;;;;;;;9.60;4.00;;;;;;;7.55;100.00;99903.41;5005140;28;20741;-82
2023/12/12 10:38:51;;;;;;;10.07;4.07;;;;;;;7.58;100.00;99898.78;5006178;28;20300;-82
2023/12/12 10:41:20;;;;;;;8.57;3.57;;;;;;;7.55;100.00;99896.31;5007879;28;20210;-82
2023/12/12 10:43:48;;;;;;;8.60;4.10;;;;;;;7.58;100.00;99889.97;5004475;28;20306;-82
2023/12/12 10:46:16;;;;;;;8.67;3.97;;;;;;;7.58;100.00;99890.81;5008217;28;20227;-83
2023/12/12 10:48:46;;;;;;;9.53;3.70;;;;;;;7.59;100.00;99886.38;5007286;28;20199;-83
2023/12/12 10:51:13;;;;;;;10.80;3.93;;;;;;;7.62;100.00;99881.75;5002994;28;20261;-82
2023/12/12 10:53:42;;;;;;;9.37;4.33;;;;;;;7.65;100.00;99880.69;5010206;28;20653;-84
2023/12/12 10:56:09;;;;;;;6.77;3.43;;;;;;;7.68;100.00;99877.84;5007752;28;20276;-83
2023/12/12 10:58:39;;;;;;;7.60;3.17;;;;;;;7.70;100.00;99868.00;5004553;28;20210;-83
2023/12/12 11:01:06;;;;;;;10.47;3.53;;;;;;;7.79;100.00;99855.94;5002757;28;20207;-83
2023/12/12 11:03:35;;;;;;;10.93;3.50;;;;;;;7.81;100.00;99856.72;5011808;28;20593;-82
2023/12/12 11:06:02;;;;;;;5.47;3.23;;;;;;;7.81;100.00;99851.41;5004913;28;20223;-83
2023/12/12 11:08:29;;;;;;;10.37;4.60;;;;;;;7.86;100.00;99857.28;5004277;28;20643;-82
2023/12/12 11:10:55;;;;;;;7.77;3.30;;;;;;;7.85;100.00;99863.53;5012300;28;20218;-82
2023/12/12 11:13:25;;;;;;;8.17;4.20;;;;;;;7.87;100.00;99854.53;5008385;28;20210;-82
2023/12/12 11:15:56;;;;;;;8.20;3.47;;;;;;;7.92;100.00;99844.44;5010555;28;20556;-83
2023/12/12 11:18:22;;;;;;;7.90;3.50;;;;;;;7.95;100.00;99843.41;5003319;28;20210;-81
2023/12/12 11:20:49;;;;;;;6.70;2.43;;;;;;;7.95;99.96;99848.72;5005191;28;20247;-83
2023/12/12 11:23:52;;;;;;;9.23;3.20;;;;;;;7.94;100.00;99839.03;5011504;28;20234;-84
2023/12/12 11:26:20;;;;;;;6.47;3.50;;;;;;;7.96;99.99;99840.66;5009587;28;20237;-83
2023/12/12 11:28:48;;;;;;;9.63;3.77;;;;;;;7.98;99.78;99829.94;5004667;28;20713;-83
2023/12/12 11:31:21;;;;;;;7.90;3.60;;;;;;;8.03;99.92;99822.56;5013565;28;20234;-83